Time;durP1;ratioP1;P1;durP2;ratioP2;P2;SDS_P1;SDS_P2;PMS_P1;PMS_P2;Temp;Humidity;BMP_temperature;BMP_pressure;BME280_temperature;BME280_humidity;BME280_pressure;Samples;Min_cycle;Max_cycle;Signal;HPM_P1;HPM_P2
2021/10/23 00:01:39;;;;;;;9.05;4.43;;;;;;;18.21;86.22;101763.38;5052496;28;20048;-64
2021/10/23 00:04:06;;;;;;;8.75;4.50;;;;;;;18.22;86.01;101773.16;5070155;28;20057;-64
2021/10/23 00:06:34;;;;;;;8.75;4.55;;;;;;;18.23;85.95;101764.28;5052162;28;20516;-64
2021/10/23 00:09:01;;;;;;;9.75;4.38;;;;;;;18.24;85.81;101763.38;5070718;28;20043;-64
2021/10/23 00:11:29;;;;;;;8.50;3.95;;;;;;;18.22;85.63;101761.59;5068119;28;20134;-65
2021/10/23 00:13:56;;;;;;;8.32;4.35;;;;;;;18.17;85.68;101768.72;5057043;28;20040;-64
2021/10/23 00:16:24;;;;;;;10.18;4.93;;;;;;;18.15;85.76;101763.38;5052316;28;20531;-64
2021/10/23 00:18:52;;;;;;;10.45;3.88;;;;;;;18.06;85.67;101758.00;5071779;28;20044;-64
2021/10/23 00:21:20;;;;;;;8.55;4.22;;;;;;;17.95;85.91;101757.09;5071150;28;20036;-63
2021/10/23 00:23:47;;;;;;;12.20;4.72;;;;;;;17.93;86.21;101756.19;5058466;28;20401;-64
2021/10/23 00:26:14;;;;;;;8.77;4.20;;;;;;;17.93;86.30;101757.09;5051284;28;20041;-65
2021/10/23 00:28:42;;;;;;;10.07;3.90;;;;;;;17.95;86.14;101751.75;5062687;28;20033;-65
2021/10/23 00:31:10;;;;;;;8.32;4.97;;;;;;;18.01;86.14;101753.53;5069915;28;20056;-65
2021/10/23 00:33:39;;;;;;;7.85;4.18;;;;;;;18.01;85.59;101754.44;5071569;28;20036;-65
2021/10/23 00:36:08;;;;;;;6.20;3.65;;;;;;;17.97;85.37;101747.31;5067527;28;20048;-64
2021/10/23 00:38:36;;;;;;;7.00;3.70;;;;;;;17.98;85.32;101754.47;5070533;28;20037;-64
2021/10/23 00:41:04;;;;;;;8.32;4.25;;;;;;;17.97;85.23;101752.66;5068908;28;20040;-64
2021/10/23 00:43:31;;;;;;;5.68;3.25;;;;;;;17.93;85.04;101750.84;5071431;28;20036;-65
2021/10/23 00:45:59;;;;;;;7.20;3.42;;;;;;;17.90;85.14;101750.88;5052498;28;20067;-65
2021/10/23 00:48:26;;;;;;;8.60;3.80;;;;;;;17.90;85.38;101748.19;5051491;28;20041;-64
2021/10/23 00:50:53;;;;;;;8.43;3.80;;;;;;;17.91;85.29;101750.00;5056745;28;20063;-64
2021/10/23 00:53:23;;;;;;;8.63;4.45;;;;;;;17.89;85.22;101743.75;5054057;28;20039;-64
2021/10/23 00:55:51;;;;;;;6.53;3.92;;;;;;;17.91;85.22;101739.31;5067942;28;20051;-64
2021/10/23 00:58:19;;;;;;;6.28;4.07;;;;;;;17.90;85.12;101730.41;5053186;28;20412;-64
2021/10/23 01:00:46;;;;;;;9.23;4.28;;;;;;;17.90;84.97;101737.50;5050911;28;20041;-64
2021/10/23 01:03:14;;;;;;;7.22;3.42;;;;;;;17.89;84.77;101733.06;5067144;28;20032;-65
2021/10/23 01:05:43;;;;;;;6.88;3.80;;;;;;;17.89;84.75;101730.38;5055626;28;20099;-64
2021/10/23 01:08:10;;;;;;;8.27;4.13;;;;;;;17.86;84.63;101731.25;5032963;28;20052;-64
2021/10/23 01:10:39;;;;;;;10.05;4.00;;;;;;;17.85;84.62;101739.28;5053232;28;20044;-64
2021/10/23 01:13:07;;;;;;;9.35;4.53;;;;;;;17.83;84.56;101731.28;5055341;28;20378;-64
2021/10/23 01:15:35;;;;;;;9.13;3.83;;;;;;;17.82;84.42;101726.81;5052405;28;20044;-65
2021/10/23 01:18:05;;;;;;;8.23;4.18;;;;;;;17.81;84.39;101727.69;5056118;28;20373;-64
2021/10/23 01:20:34;;;;;;;8.82;4.63;;;;;;;17.80;84.38;101733.94;5060234;28;20035;-64
2021/10/23 01:23:02;;;;;;;9.95;3.90;;;;;;;17.79;84.32;101728.56;5051526;28;20048;-64
2021/10/23 01:25:32;;;;;;;6.43;3.38;;;;;;;17.75;84.11;101729.47;5056705;28;20033;-65
2021/10/23 01:28:02;;;;;;;7.05;3.83;;;;;;;17.70;84.05;101728.56;5070248;28;20124;-64
2021/10/23 01:30:30;;;;;;;7.28;3.95;;;;;;;17.67;84.19;101731.22;5051032;28;20047;-64
2021/10/23 01:32:59;;;;;;;6.13;3.72;;;;;;;17.61;84.57;101731.22;5050667;28;20044;-64
2021/10/23 01:35:27;;;;;;;6.85;3.85;;;;;;;17.60;84.32;101729.38;5051031;28;20043;-64
2021/10/23 01:37:57;;;;;;;6.93;4.05;;;;;;;17.59;84.34;101727.63;5059674;28;20045;-64
2021/10/23 01:40:27;;;;;;;8.07;3.85;;;;;;;17.54;84.32;101724.94;5057123;28;20033;-64
2021/10/23 01:42:54;;;;;;;7.20;3.60;;;;;;;17.47;84.26;101728.47;5060688;28;20128;-64
2021/10/23 01:45:22;;;;;;;7.72;3.28;;;;;;;17.44;84.27;101717.81;5070603;28;20051;-64
2021/10/23 01:47:49;;;;;;;10.07;4.20;;;;;;;17.40;84.20;101721.31;5064683;28;20067;-65
2021/10/23 01:50:18;;;;;;;8.07;3.90;;;;;;;17.35;84.26;101715.09;5050288;28;20059;-64
2021/10/23 01:52:46;;;;;;;6.35;3.42;;;;;;;17.25;84.47;101713.28;5063408;28;20518;-64
2021/10/23 01:55:16;;;;;;;6.55;3.42;;;;;;;17.20;84.69;101710.59;5057252;28;20049;-64
2021/10/23 01:57:44;;;;;;;6.72;3.65;;;;;;;17.22;84.90;101706.16;5050327;28;20496;-64
2021/10/23 02:00:13;;;;;;;6.60;3.60;;;;;;;17.25;84.62;101707.97;5051646;28;20443;-64
2021/10/23 02:02:41;;;;;;;7.00;3.60;;;;;;;17.25;84.47;101710.63;5051461;28;20128;-64
2021/10/23 02:05:09;;;;;;;6.22;3.20;;;;;;;17.16;84.48;101708.81;5068626;28;20041;-64
2021/10/23 02:07:37;;;;;;;10.57;4.30;;;;;;;17.17;84.56;101707.03;5065812;28;20044;-64
2021/10/23 02:10:05;;;;;;;6.88;3.83;;;;;;;17.19;84.36;101702.59;5068064;28;20033;-65
2021/10/23 02:12:34;;;;;;;8.52;3.83;;;;;;;17.20;84.00;101707.91;5060910;28;20045;-64
2021/10/23 02:15:02;;;;;;;6.30;3.63;;;;;;;17.18;83.69;101708.81;5064469;28;20041;-64
2021/10/23 02:17:29;;;;;;;9.10;4.07;;;;;;;17.09;83.60;101707.88;5067515;28;20045;-65
2021/10/23 02:19:57;;;;;;;6.38;3.72;;;;;;;17.11;83.69;101702.56;5070259;28;20500;-64
2021/10/23 02:22:24;;;;;;;7.38;3.45;;;;;;;17.10;83.63;101703.44;5069760;28;20396;-64
2021/10/23 02:24:51;;;;;;;6.50;3.70;;;;;;;17.08;83.72;101700.75;5053043;28;20045;-64
2021/10/23 02:27:19;;;;;;;8.90;5.22;;;;;;;17.08;83.56;101697.19;5050231;28;20520;-64
2021/10/23 02:29:48;;;;;;;9.18;3.70;;;;;;;17.03;83.84;101696.31;5059716;28;20507;-64
2021/10/23 02:32:15;;;;;;;7.13;4.00;;;;;;;17.02;83.97;101700.75;5056347;28;20061;-64
2021/10/23 02:34:43;;;;;;;6.18;3.60;;;;;;;17.02;83.93;101703.41;5054492;28;20041;-64
2021/10/23 02:37:10;;;;;;;5.57;3.50;;;;;;;17.03;84.01;101697.19;5069246;28;20041;-64
2021/10/23 02:39:38;;;;;;;10.65;4.05;;;;;;;17.05;83.87;101699.88;5066189;28;20420;-64
2021/10/23 02:42:05;;;;;;;7.00;3.40;;;;;;;17.03;83.69;101696.31;5060163;28;20048;-64
2021/10/23 02:44:33;;;;;;;7.53;3.53;;;;;;;17.00;83.71;101694.50;5070421;28;20055;-64
2021/10/23 02:47:02;;;;;;;7.75;3.88;;;;;;;16.95;83.74;101695.38;5033746;28;20133;-65
2021/10/23 02:49:29;;;;;;;7.10;3.85;;;;;;;16.92;83.72;101701.59;5033692;28;20048;-65
2021/10/23 02:51:57;;;;;;;6.72;3.45;;;;;;;16.93;83.73;101689.16;5033620;28;20412;-64
2021/10/23 02:54:24;;;;;;;8.43;3.83;;;;;;;16.91;83.69;101690.91;5033277;28;20504;-64
2021/10/23 02:56:52;;;;;;;6.28;3.65;;;;;;;16.89;83.73;101690.91;5033158;28;20048;-64
2021/10/23 02:59:19;;;;;;;7.85;3.10;;;;;;;16.88;83.71;101690.88;5033688;28;20029;-63
2021/10/23 03:01:46;;;;;;;12.77;3.90;;;;;;;16.86;83.70;101703.34;5033207;28;20505;-64
2021/10/23 03:04:15;;;;;;;5.90;3.15;;;;;;;16.84;83.84;101691.78;5033845;28;20046;-64
2021/10/23 03:06:44;;;;;;;7.45;4.05;;;;;;;16.83;83.90;101696.22;5035892;28;20055;-64
2021/10/23 03:09:12;;;;;;;8.88;3.15;;;;;;;16.85;83.86;101698.88;5052827;28;20045;-64
2021/10/23 03:11:40;;;;;;;6.40;3.60;;;;;;;16.81;83.78;101700.63;5052753;28;20120;-64
2021/10/23 03:14:07;;;;;;;5.65;3.13;;;;;;;16.77;83.81;101695.28;5052541;28;20045;-64
2021/10/23 03:16:36;;;;;;;6.38;3.20;;;;;;;16.74;83.77;101699.72;5052344;28;20528;-64
2021/10/23 03:19:03;;;;;;;7.45;3.08;;;;;;;16.72;83.75;101698.84;5035344;28;20547;-64
2021/10/23 03:21:32;;;;;;;6.47;3.22;;;;;;;16.70;83.74;101697.03;5052406;28;20037;-65
2021/10/23 03:24:00;;;;;;;5.80;3.20;;;;;;;16.65;83.68;101707.69;5047260;28;20119;-64
2021/10/23 03:26:27;;;;;;;6.70;3.42;;;;;;;16.60;83.51;101705.88;5052397;28;20090;-64
2021/10/23 03:28:54;;;;;;;6.68;3.47;;;;;;;16.60;83.77;101697.88;5052772;28;20052;-64
2021/10/23 03:31:22;;;;;;;8.52;3.45;;;;;;;16.56;83.75;101702.25;5051779;28;20508;-65
2021/10/23 03:33:49;;;;;;;7.38;3.55;;;;;;;16.54;83.79;101708.47;5052174;28;20420;-65
2021/10/23 03:36:17;;;;;;;6.38;3.60;;;;;;;16.54;83.92;101703.13;5052177;28;20098;-64
2021/10/23 03:38:46;;;;;;;5.75;3.40;;;;;;;16.55;83.83;101705.78;5052966;28;20045;-64
2021/10/23 03:41:13;;;;;;;8.23;3.60;;;;;;;16.54;83.83;101705.81;5052779;28;20128;-64
2021/10/23 03:43:40;;;;;;;6.00;3.55;;;;;;;16.55;83.88;101694.22;5051695;28;20056;-64
2021/10/23 03:46:08;;;;;;;5.60;3.67;;;;;;;16.55;83.83;101703.13;5062750;28;20075;-64
2021/10/23 03:48:35;;;;;;;8.80;4.13;;;;;;;16.57;83.85;101709.38;5055824;28;20041;-65
2021/10/23 03:51:02;;;;;;;8.32;5.13;;;;;;;16.53;83.58;101707.56;5071852;28;20029;-64
2021/10/23 03:53:30;;;;;;;8.63;4.43;;;;;;;16.44;83.55;101714.59;5046362;28;20516;-64
2021/10/23 03:55:59;;;;;;;7.22;3.65;;;;;;;16.38;83.70;101717.22;5052141;28;20047;-65
2021/10/23 03:58:26;;;;;;;8.70;3.38;;;;;;;16.33;83.69;101719.88;5052502;28;20120;-65
2021/10/23 04:00:53;;;;;;;6.75;3.17;;;;;;;16.26;83.77;101713.59;5052795;28;20052;-64
2021/10/23 04:03:21;;;;;;;6.50;3.20;;;;;;;16.24;83.79;101715.34;5061355;28;20041;-65
2021/10/23 04:05:48;;;;;;;8.35;4.35;;;;;;;16.31;83.95;101726.94;5052106;28;20067;-64
2021/10/23 04:08:15;;;;;;;7.30;4.00;;;;;;;16.34;83.65;101716.34;5052744;28;20048;-65
2021/10/23 04:10:43;;;;;;;9.35;3.33;;;;;;;16.39;83.67;101724.34;5051853;28;20052;-64
2021/10/23 04:13:12;;;;;;;6.80;3.63;;;;;;;16.41;83.65;101722.59;5053528;28;20033;-65
2021/10/23 04:15:39;;;;;;;11.73;3.65;;;;;;;16.38;83.62;101725.22;5056878;28;20041;-64
2021/10/23 04:18:07;;;;;;;6.03;3.15;;;;;;;16.34;83.49;101719.00;5065717;28;20036;-65
2021/10/23 04:20:34;;;;;;;5.03;2.55;;;;;;;16.32;83.47;101720.75;5071365;28;20033;-64
2021/10/23 04:23:02;;;;;;;10.13;3.67;;;;;;;16.31;83.72;101719.84;5071925;28;20052;-64
2021/10/23 04:25:29;;;;;;;8.80;3.80;;;;;;;16.33;84.03;101727.88;5060082;28;20029;-64
2021/10/23 04:27:57;;;;;;;7.38;3.83;;;;;;;16.29;84.05;101728.69;5053515;28;20449;-65
2021/10/23 04:30:26;;;;;;;10.43;3.47;;;;;;;16.22;83.96;101725.09;5051904;28;20087;-63
2021/10/23 04:32:53;;;;;;;5.32;3.65;;;;;;;16.08;84.04;101728.56;5059726;28;20051;-64
2021/10/23 04:35:20;;;;;;;10.43;4.07;;;;;;;16.09;84.51;101722.31;5052319;28;20044;-63
2021/10/23 04:37:48;;;;;;;9.00;4.53;;;;;;;16.20;84.58;101733.97;5052129;28;20045;-63
2021/10/23 04:40:15;;;;;;;8.50;4.32;;;;;;;16.26;84.44;101729.59;5066342;28;20040;-63
2021/10/23 04:42:42;;;;;;;8.32;4.30;;;;;;;16.27;84.21;101725.16;5052420;28;20035;-64
2021/10/23 04:45:10;;;;;;;8.73;4.82;;;;;;;16.31;84.29;101726.94;5051023;28;20053;-63
2021/10/23 04:47:39;;;;;;;8.73;4.13;;;;;;;16.33;84.17;101723.44;5052908;28;20481;-63
2021/10/23 04:50:07;;;;;;;9.18;4.40;;;;;;;16.33;84.25;101726.09;5053361;28;20045;-65
2021/10/23 04:52:34;;;;;;;7.85;4.75;;;;;;;16.35;84.42;101728.75;5059494;28;20047;-64
2021/10/23 04:55:01;;;;;;;6.53;3.67;;;;;;;16.37;84.42;101726.09;5067525;28;20033;-63
2021/10/23 04:57:29;;;;;;;8.85;3.90;;;;;;;16.34;84.32;101727.00;5051654;28;20045;-64
2021/10/23 04:59:56;;;;;;;8.60;4.75;;;;;;;16.31;84.47;101732.28;5052279;28;20049;-63
2021/10/23 05:02:23;;;;;;;8.15;4.05;;;;;;;16.32;84.44;101734.06;5071267;28;20070;-63
2021/10/23 05:04:53;;;;;;;7.25;3.70;;;;;;;16.34;84.51;101737.66;5060222;28;20052;-63
2021/10/23 05:07:20;;;;;;;6.55;4.25;;;;;;;16.21;84.50;101739.28;5051230;28;20037;-63
2021/10/23 05:09:47;;;;;;;6.72;4.15;;;;;;;16.15;84.75;101741.91;5060406;28;20124;-63
2021/10/23 05:12:14;;;;;;;7.13;4.10;;;;;;;16.13;84.96;101756.13;5059628;28;20049;-63
2021/10/23 05:14:42;;;;;;;8.15;4.65;;;;;;;16.39;86.07;101753.66;5057380;28;20048;-64
2021/10/23 05:17:09;;;;;;;9.50;4.68;;;;;;;16.72;87.15;101754.84;5067280;28;20037;-63
2021/10/23 05:19:37;;;;;;;7.20;4.20;;;;;;;17.02;88.14;101761.22;5069216;28;20056;-63
2021/10/23 05:22:06;;;;;;;6.57;4.03;;;;;;;17.28;88.81;101759.56;5066734;28;20040;-63
2021/10/23 05:24:34;;;;;;;5.90;3.50;;;;;;;17.47;89.22;101764.06;5067033;28;20024;-62
2021/10/23 05:27:01;;;;;;;6.13;3.08;;;;;;;17.63;89.18;101765.06;5070648;28;20037;-63
2021/10/23 05:29:28;;;;;;;9.10;3.33;;;;;;;17.76;89.28;101776.66;5070646;28;20041;-63
2021/10/23 05:31:56;;;;;;;7.57;3.22;;;;;;;17.88;89.22;101774.91;5065757;28;20077;-62
2021/10/23 05:34:24;;;;;;;7.53;3.17;;;;;;;17.97;88.68;101784.72;5050576;28;20048;-62
2021/10/23 05:36:53;;;;;;;6.47;3.47;;;;;;;18.10;88.43;101786.53;5070191;28;20063;-63
2021/10/23 05:39:22;;;;;;;6.82;3.30;;;;;;;18.25;88.51;101780.28;5069597;28;20115;-63
2021/10/23 05:41:49;;;;;;;5.38;2.60;;;;;;;18.43;88.83;101787.44;5054155;28;20037;-63
2021/10/23 05:44:17;;;;;;;6.32;3.00;;;;;;;18.60;88.54;101794.59;5070104;28;20078;-63
2021/10/23 05:46:44;;;;;;;3.95;2.75;;;;;;;18.72;87.92;101799.03;5070035;28;20044;-63
2021/10/23 05:49:11;;;;;;;4.03;2.95;;;;;;;18.72;87.16;101799.03;5055512;28;20488;-63
2021/10/23 05:51:39;;;;;;;4.68;2.72;;;;;;;18.85;87.34;101803.47;5052699;28;20049;-63
2021/10/23 05:54:06;;;;;;;4.15;2.72;;;;;;;18.97;86.57;101795.41;5057987;28;20096;-63
2021/10/23 05:56:35;;;;;;;5.20;3.13;;;;;;;19.08;85.30;101796.28;5050292;28;20037;-63
2021/10/23 05:59:10;;;;;;;5.72;2.92;;;;;;;19.23;84.89;101799.81;5070230;28;20044;-63
2021/10/23 06:01:38;;;;;;;4.93;2.75;;;;;;;19.40;85.18;101803.31;5057607;28;20481;-63
2021/10/23 06:04:05;;;;;;;6.13;2.75;;;;;;;19.58;85.15;101805.06;5054351;28;20037;-63
2021/10/23 06:06:33;;;;;;;3.42;2.67;;;;;;;19.77;84.93;101804.06;5058762;28;20373;-65
2021/10/23 06:09:01;;;;;;;7.90;2.75;;;;;;;19.96;84.50;101812.88;5073647;28;20041;-64
2021/10/23 06:11:30;;;;;;;5.68;2.58;;;;;;;20.02;83.79;101813.72;5073956;28;20037;-63
2021/10/23 06:13:59;;;;;;;6.00;2.28;;;;;;;20.19;83.64;101821.69;5073846;28;20514;-63
2021/10/23 06:16:27;;;;;;;6.00;2.53;;;;;;;20.38;82.53;101817.09;5073383;28;20061;-63
2021/10/23 06:18:54;;;;;;;3.45;2.13;;;;;;;20.55;82.46;101821.41;5073686;28;20091;-63
2021/10/23 06:21:22;;;;;;;6.25;2.60;;;;;;;20.72;81.85;101818.59;5074080;28;20490;-63
2021/10/23 06:23:49;;;;;;;6.13;2.80;;;;;;;20.90;81.73;101818.41;5066966;28;20040;-63
2021/10/23 06:26:16;;;;;;;4.30;2.10;;;;;;;21.02;80.04;101820.09;5073211;28;20033;-63
2021/10/23 06:28:44;;;;;;;4.75;2.10;;;;;;;21.11;78.64;101828.06;5066209;28;20052;-64
2021/10/23 06:31:13;;;;;;;5.50;2.50;;;;;;;21.27;78.62;101829.69;5059710;28;20503;-64
2021/10/23 06:33:40;;;;;;;7.20;2.53;;;;;;;21.34;79.20;101826.03;5054790;28;20041;-63
2021/10/23 06:36:08;;;;;;;4.60;2.65;;;;;;;21.47;80.01;101834.81;5060816;28;20041;-64
2021/10/23 06:38:35;;;;;;;4.22;2.33;;;;;;;21.58;80.02;101840.97;5061664;28;20064;-63
2021/10/23 06:41:02;;;;;;;6.25;2.28;;;;;;;21.82;79.44;101839.75;5063255;28;20045;-64
2021/10/23 06:43:30;;;;;;;4.07;2.70;;;;;;;22.05;78.10;101837.69;5060762;28;20123;-63
2021/10/23 06:45:57;;;;;;;6.20;2.80;;;;;;;22.26;76.35;101836.44;5059560;28;20039;-64
2021/10/23 06:48:26;;;;;;;4.50;2.13;;;;;;;22.43;74.12;101845.16;5063914;28;20033;-65
2021/10/23 06:50:53;;;;;;;6.78;2.20;;;;;;;22.59;71.68;101835.91;5053848;28;20045;-64
2021/10/23 06:53:20;;;;;;;4.68;2.10;;;;;;;22.68;69.11;101834.88;5062893;28;20048;-64
2021/10/23 06:55:48;;;;;;;3.58;2.20;;;;;;;22.78;68.13;101836.50;5054683;28;20409;-64
2021/10/23 06:58:15;;;;;;;5.53;1.98;;;;;;;22.87;68.38;101841.75;5059693;28;20041;-64
2021/10/23 07:00:43;;;;;;;7.00;2.30;;;;;;;22.97;66.70;101846.03;5069672;28;20045;-64
2021/10/23 07:03:10;;;;;;;6.10;2.17;;;;;;;23.01;65.97;101837.00;5061162;28;20041;-64
2021/10/23 07:05:39;;;;;;;6.32;2.25;;;;;;;23.14;66.19;101842.16;5038768;28;20050;-64
2021/10/23 07:08:07;;;;;;;3.83;2.05;;;;;;;23.27;67.05;101836.50;5063462;28;20054;-63
2021/10/23 07:10:34;;;;;;;6.47;2.10;;;;;;;23.44;66.66;101839.75;5052987;28;20048;-65
2021/10/23 07:13:02;;;;;;;7.07;1.92;;;;;;;23.59;66.56;101837.69;5066054;28;20045;-63
2021/10/23 07:15:30;;;;;;;4.32;1.95;;;;;;;23.72;66.36;101850.88;5066195;28;20044;-64
2021/10/23 07:17:57;;;;;;;4.68;2.00;;;;;;;23.88;66.93;101846.06;5071478;28;20049;-64
2021/10/23 07:20:26;;;;;;;4.90;2.10;;;;;;;24.06;67.08;101852.84;5062837;28;20059;-64
2021/10/23 07:22:54;;;;;;;3.88;1.90;;;;;;;24.16;66.95;101857.97;5059747;28;20519;-65
2021/10/23 07:25:22;;;;;;;6.25;1.90;;;;;;;24.21;66.03;101849.84;5065288;28;20826;-63
2021/10/23 07:27:49;;;;;;;6.60;2.20;;;;;;;24.24;65.70;101849.75;5052563;28;20049;-64
2021/10/23 07:30:16;;;;;;;3.85;2.03;;;;;;;24.30;65.35;101855.00;5056930;28;20048;-64
2021/10/23 07:32:44;;;;;;;3.90;2.40;;;;;;;24.33;64.82;101860.34;5060434;28;20047;-64
2021/10/23 07:35:12;;;;;;;2.30;1.60;;;;;;;24.45;64.55;101853.75;5069223;28;20101;-64
2021/10/23 07:37:40;;;;;;;5.50;2.20;;;;;;;24.57;63.99;101854.34;5057397;28;20041;-65
2021/10/23 07:40:12;;;;;;;3.10;1.88;;;;;;;24.69;63.49;101852.25;5052756;28;20051;-64
2021/10/23 07:42:41;;;;;;;7.97;1.88;;;;;;;24.77;63.15;101847.53;5052163;28;20040;-64
2021/10/23 07:45:10;;;;;;;5.30;1.70;;;;;;;24.87;62.47;101844.59;5052613;28;20041;-65
2021/10/23 07:47:38;;;;;;;5.78;1.80;;;;;;;24.92;62.05;101844.47;5058029;28;20041;-64
2021/10/23 07:50:06;;;;;;;3.80;1.92;;;;;;;24.93;61.12;101846.25;5054293;28;20047;-64
2021/10/23 07:52:33;;;;;;;3.22;2.08;;;;;;;24.96;61.62;101844.34;5059317;28;20036;-65
2021/10/23 07:55:01;;;;;;;3.65;1.67;;;;;;;25.09;61.18;101839.50;5065454;28;20388;-64
2021/10/23 07:57:30;;;;;;;9.88;1.85;;;;;;;25.21;60.61;101847.28;5060077;28;20041;-64
2021/10/23 07:59:57;;;;;;;4.38;1.73;;;;;;;25.27;59.91;101841.69;5072359;28;20116;-64
2021/10/23 08:02:24;;;;;;;4.40;2.33;;;;;;;25.27;59.11;101833.56;5067538;28;20044;-64
2021/10/23 08:04:52;;;;;;;5.13;2.20;;;;;;;25.37;59.35;101845.94;5062127;28;20037;-64
2021/10/23 08:07:21;;;;;;;5.38;1.60;;;;;;;25.44;58.96;101846.63;5057212;28;20043;-64
2021/10/23 08:09:48;;;;;;;6.60;1.73;;;;;;;25.35;57.42;101853.19;5063546;28;20048;-64
2021/10/23 08:12:15;;;;;;;3.33;1.90;;;;;;;25.30;57.50;101852.44;5068787;28;20047;-64
2021/10/23 08:14:45;;;;;;;2.25;1.55;;;;;;;25.33;58.35;101849.66;5058774;28;20041;-64
2021/10/23 08:17:12;;;;;;;3.58;1.55;;;;;;;25.41;58.32;101841.31;5058721;28;20054;-64
2021/10/23 08:19:40;;;;;;;4.55;1.75;;;;;;;25.47;57.60;101843.81;5068819;28;20393;-65
2021/10/23 08:22:08;;;;;;;3.47;1.58;;;;;;;25.59;57.63;101838.13;5070524;28;20041;-64
2021/10/23 08:24:35;;;;;;;4.30;1.70;;;;;;;25.77;57.47;101848.41;5068138;28;20377;-64
2021/10/23 08:27:03;;;;;;;7.05;1.77;;;;;;;25.81;55.83;101843.75;5056173;28;20072;-64
2021/10/23 08:29:30;;;;;;;4.22;1.60;;;;;;;25.82;55.90;101844.66;5064291;28;20044;-64
2021/10/23 08:31:59;;;;;;;3.70;1.50;;;;;;;25.79;55.23;101841.13;5060019;28;20041;-64
2021/10/23 08:34:26;;;;;;;4.05;1.77;;;;;;;25.71;54.99;101847.69;5062557;28;20037;-64
2021/10/23 08:36:54;;;;;;;4.22;1.70;;;;;;;25.71;54.70;101847.69;5059313;28;20638;-64
2021/10/23 08:39:21;;;;;;;4.82;1.70;;;;;;;25.83;54.84;101844.59;5053480;28;20385;-64
2021/10/23 08:41:49;;;;;;;3.67;1.70;;;;;;;25.96;54.94;101854.13;5053215;28;20045;-64
2021/10/23 08:44:19;;;;;;;3.75;1.58;;;;;;;26.03;54.56;101857.53;5060777;28;20718;-63
2021/10/23 08:46:46;;;;;;;2.95;1.35;;;;;;;26.03;54.44;101855.72;5064205;28;20049;-64
2021/10/23 08:49:16;;;;;;;5.78;1.80;;;;;;;26.14;54.61;101855.38;5061657;28;20089;-63
2021/10/23 08:51:44;;;;;;;4.35;1.60;;;;;;;26.28;54.79;101852.25;5064471;28;20040;-63
2021/10/23 08:54:13;;;;;;;5.30;1.38;;;;;;;26.42;54.17;101866.25;5052324;28;20041;-62
2021/10/23 08:56:41;;;;;;;3.97;1.73;;;;;;;26.54;53.76;101853.19;5055131;28;20083;-64
2021/10/23 08:59:08;;;;;;;3.20;1.73;;;;;;;26.55;53.38;101857.66;5056443;28;20052;-63
2021/10/23 09:01:36;;;;;;;3.95;1.63;;;;;;;26.53;53.11;101867.66;5065380;28;20032;-63
2021/10/23 09:04:03;;;;;;;2.80;1.60;;;;;;;26.62;53.58;101858.34;5052177;28;20132;-63
2021/10/23 09:06:34;;;;;;;4.10;1.70;;;;;;;26.65;53.36;101858.22;5051368;28;20407;-64
2021/10/23 09:09:07;;;;;;;4.70;1.85;;;;;;;26.67;52.85;101850.94;5061596;28;20052;-64
2021/10/23 09:11:36;;;;;;;;;;;;;;;26.51;52.66;101847.88;5071491;28;20086;-63
2021/10/23 09:14:24;;;;;;;4.15;1.80;;;;;;;26.50;52.68;101847.94;5059703;28;19921;-65
2021/10/23 09:17:04;;;;;;;4.68;1.70;;;;;;;26.51;52.24;101847.88;5057767;28;20523;-64
2021/10/23 09:19:33;;;;;;;2.75;1.48;;;;;;;26.37;51.80;101839.31;5064860;28;20032;-64
2021/10/23 09:22:03;;;;;;;3.97;1.80;;;;;;;26.40;52.24;101841.91;5065876;28;20049;-64
2021/10/23 09:24:31;;;;;;;8.60;2.00;;;;;;;26.52;52.19;101844.22;5058147;28;20048;-64
2021/10/23 09:26:58;;;;;;;2.80;1.60;;;;;;;26.65;52.10;101836.56;5054589;28;20524;-64
2021/10/23 09:29:28;;;;;;;3.55;1.52;;;;;;;26.66;51.52;101834.72;5061943;28;20492;-64
2021/10/23 09:31:56;;;;;;;4.43;1.70;;;;;;;26.49;51.70;101836.19;5065159;28;20033;-64
2021/10/23 09:34:25;;;;;;;5.57;1.92;;;;;;;26.38;51.67;101826.66;5066772;28;20044;-64
2021/10/23 09:36:53;;;;;;;5.97;1.95;;;;;;;26.36;52.22;101829.41;5054741;28;20040;-64
2021/10/23 09:39:27;;;;;;;4.10;1.80;;;;;;;26.38;51.44;101829.38;5058842;28;20052;-65
2021/10/23 09:42:11;;;;;;;;;;;;;;;26.35;51.79;101834.88;5062696;28;20041;-64
2021/10/23 09:44:54;;;;;;;4.80;1.83;;;;;;;26.58;52.41;101840.44;5064052;28;20321;-64
2021/10/23 09:47:24;;;;;;;5.95;2.50;;;;;;;26.56;51.81;101839.59;5057942;28;20036;-64
2021/10/23 09:50:05;;;;;;;4.15;1.98;;;;;;;26.75;51.07;101835.31;5061000;28;20126;-63
2021/10/23 09:52:34;;;;;;;3.78;2.00;;;;;;;26.79;51.14;101834.25;5061709;28;20045;-64
2021/10/23 09:55:18;;;;;;;7.55;2.28;;;;;;;26.92;51.04;101829.34;5058358;28;20542;-64
2021/10/23 09:57:45;;;;;;;3.92;2.05;;;;;;;27.02;51.25;101817.25;5039759;28;20048;-65
2021/10/23 10:00:13;;;;;;;3.90;1.90;;;;;;;27.17;51.27;101832.09;5035577;28;20082;-64
2021/10/23 10:02:42;;;;;;;5.68;2.00;;;;;;;27.23;51.24;101821.00;5065844;28;20032;-65
2021/10/23 10:05:10;;;;;;;4.38;1.90;;;;;;;27.25;50.91;101821.81;5044427;28;20044;-64
2021/10/23 10:07:38;;;;;;;3.85;1.98;;;;;;;27.34;50.31;101818.78;5053749;28;20041;-64
2021/10/23 10:10:06;;;;;;;3.83;1.88;;;;;;;27.30;49.80;101818.03;5055108;28;20037;-65
2021/10/23 10:12:35;;;;;;;3.97;2.03;;;;;;;27.19;49.31;101808.47;5058995;28;20385;-64
2021/10/23 10:15:08;;;;;;;4.68;2.00;;;;;;;27.07;49.79;101811.66;5058319;28;20485;-64
2021/10/23 10:17:39;;;;;;;5.73;2.47;;;;;;;27.05;49.80;101810.81;5067087;28;20040;-65
2021/10/23 10:20:11;;;;;;;3.90;2.28;;;;;;;27.09;49.70;101810.66;5055005;28;20049;-64
2021/10/23 10:22:50;;;;;;;4.93;2.10;;;;;;;27.02;49.28;101800.09;5050670;28;20045;-64
2021/10/23 10:25:19;;;;;;;4.90;1.92;;;;;;;27.00;49.86;101807.38;5052793;28;20050;-64
2021/10/23 10:27:52;;;;;;;6.10;2.45;;;;;;;27.03;49.74;101799.16;5063963;28;20056;-65
2021/10/23 10:30:28;;;;;;;3.67;2.10;;;;;;;27.04;49.53;101801.81;5058641;28;20124;-64
2021/10/23 10:33:20;;;;;;;2.90;1.98;;;;;;;27.02;48.63;101800.97;5058590;28;20034;-65
2021/10/23 10:36:14;;;;;;;3.83;2.00;;;;;;;27.04;48.44;101800.94;5041347;28;20045;-65
2021/10/23 10:38:57;;;;;;;3.00;1.95;;;;;;;27.06;48.95;101797.19;5040339;28;20049;-64
2021/10/23 10:44:13;;;;;;;7.78;2.03;;;;;;;27.12;48.91;101799.69;5053035;28;20081;-64
2021/10/23 10:47:05;;;;;;;4.85;2.05;;;;;;;27.08;48.14;101789.91;5057053;28;20074;-64
2021/10/23 10:49:56;;;;;;;4.97;2.50;;;;;;;26.82;48.10;101790.81;5061988;28;20056;-64
2021/10/23 10:52:54;;;;;;;5.03;2.20;;;;;;;26.62;48.29;101782.50;5067613;28;20086;-64
2021/10/23 10:55:23;;;;;;;5.07;2.13;;;;;;;26.50;48.49;101786.50;5070472;28;20036;-64
2021/10/23 10:58:00;;;;;;;4.32;2.53;;;;;;;26.49;48.26;101776.59;5068562;28;20040;-64
2021/10/23 11:01:05;;;;;;;6.60;2.60;;;;;;;26.47;48.70;101777.59;5056977;28;20558;-64
2021/10/23 11:03:35;;;;;;;;;;;;;;;26.35;48.79;101781.59;5052076;28;20488;-64
2021/10/23 11:06:38;;;;;;;6.22;2.28;;;;;;;26.45;48.69;101784.91;5056014;28;19946;-64
2021/10/23 11:09:30;;;;;;;6.53;2.47;;;;;;;26.55;48.45;101778.22;5014186;28;20045;-63
2021/10/23 11:12:16;;;;;;;3.85;2.28;;;;;;;26.63;48.38;101788.78;5055074;28;20136;-64
2021/10/23 11:14:44;;;;;;;5.15;2.25;;;;;;;26.62;48.38;101781.59;5072392;28;20404;-64
2021/10/23 11:17:19;;;;;;;2.78;2.28;;;;;;;26.61;48.67;101788.84;5052410;28;20496;-64
2021/10/23 11:20:02;;;;;;;3.88;2.30;;;;;;;26.53;49.20;101785.50;5069942;28;20044;-64
2021/10/23 11:22:32;;;;;;;5.90;2.60;;;;;;;26.51;50.20;101790.09;5044657;28;20523;-64
2021/10/23 11:25:05;;;;;;;5.32;2.72;;;;;;;26.41;50.46;101792.22;5065849;28;20499;-64
2021/10/23 11:27:39;;;;;;;4.80;2.65;;;;;;;26.33;50.88;101799.72;5060760;28;20440;-64
2021/10/23 11:30:15;;;;;;;4.05;2.75;;;;;;;26.26;51.12;101786.44;5064650;28;20069;-64
2021/10/23 11:32:46;;;;;;;6.38;3.22;;;;;;;26.19;51.86;101785.69;5056862;28;20044;-64
2021/10/23 11:35:16;;;;;;;5.90;3.50;;;;;;;26.16;52.07;101785.81;5065275;28;20562;-64
2021/10/23 11:37:43;;;;;;;5.30;2.70;;;;;;;26.07;51.88;101778.00;5068816;28;20119;-64
2021/10/23 11:40:13;;;;;;;6.80;2.60;;;;;;;25.99;51.55;101778.22;5064707;28;20043;-65